sensor_id;sensor_type;location;lat;lon;timestamp;pressure;altitude;pressure_sealevel;temperature;humidity
20630;BME280;17386;43.846;25.950;2023-07-29T00:00:44;100910.16;;;22.34;nan
20630;BME280;17386;43.846;25.950;2023-07-29T00:03:10;100913.84;;;22.33;nan
20630;BME280;17386;43.846;25.950;2023-07-29T00:05:37;100920.25;;;22.32;nan
20630;BME280;17386;43.846;25.950;2023-07-29T00:08:02;100925.03;;;22.29;nan
20630;BME280;17386;43.846;25.950;2023-07-29T00:10:28;100928.13;;;22.24;nan
20630;BME280;17386;43.846;25.950;2023-07-29T00:12:54;100929.63;;;22.17;nan
20630;BME280;17386;43.846;25.950;2023-07-29T00:15:19;100923.59;;;22.14;nan
20630;BME280;17386;43.846;25.950;2023-07-29T00:17:44;100923.09;;;22.08;nan
20630;BME280;17386;43.846;25.950;2023-07-29T00:20:10;100917.06;;;22.05;nan
20630;BME280;17386;43.846;25.950;2023-07-29T00:22:35;100918.13;;;22.02;nan
20630;BME280;17386;43.846;25.950;2023-07-29T00:25:02;100915.69;;;21.99;nan
20630;BME280;17386;43.846;25.950;2023-07-29T00:27:27;100913.34;;;21.95;nan
20630;BME280;17386;43.846;25.950;2023-07-29T00:29:53;100920.88;;;21.91;nan
20630;BME280;17386;43.846;25.950;2023-07-29T00:32:18;100904.00;;;21.88;nan
20630;BME280;17386;43.846;25.950;2023-07-29T00:34:43;100920.09;;;21.89;nan
20630;BME280;17386;43.846;25.950;2023-07-29T00:37:09;100913.25;;;21.85;nan
20630;BME280;17386;43.846;25.950;2023-07-29T00:39:36;100914.09;;;21.85;nan
20630;BME280;17386;43.846;25.950;2023-07-29T00:42:02;100914.97;;;21.86;nan
20630;BME280;17386;43.846;25.950;2023-07-29T00:44:28;100902.78;;;21.80;nan
20630;BME280;17386;43.846;25.950;2023-07-29T00:46:54;100908.31;;;21.79;nan
20630;BME280;17386;43.846;25.950;2023-07-29T00:49:20;100910.41;;;21.75;nan
20630;BME280;17386;43.846;25.950;2023-07-29T00:51:46;100912.38;;;21.73;nan
20630;BME280;17386;43.846;25.950;2023-07-29T00:54:13;100914.69;;;21.67;nan
20630;BME280;17386;43.846;25.950;2023-07-29T00:56:39;100913.84;;;21.66;nan
20630;BME280;17386;43.846;25.950;2023-07-29T00:59:05;100913.97;;;21.65;nan
20630;BME280;17386;43.846;25.950;2023-07-29T01:01:31;100913.59;;;21.58;nan
20630;BME280;17386;43.846;25.950;2023-07-29T01:03:57;100916.66;;;21.53;nan
20630;BME280;17386;43.846;25.950;2023-07-29T01:09:04;100917.91;;;21.49;nan
20630;BME280;17386;43.846;25.950;2023-07-29T01:15:01;100923.53;;;21.46;nan
20630;BME280;17386;43.846;25.950;2023-07-29T01:17:33;100916.41;;;21.45;nan
20630;BME280;17386;43.846;25.950;2023-07-29T01:20:07;100918.50;;;21.42;nan
20630;BME280;17386;43.846;25.950;2023-07-29T01:22:34;100914.56;;;21.35;nan
20630;BME280;17386;43.846;25.950;2023-07-29T01:25:00;100914.44;;;21.36;nan
20630;BME280;17386;43.846;25.950;2023-07-29T01:27:26;100926.31;;;21.34;nan
20630;BME280;17386;43.846;25.950;2023-07-29T01:29:53;100931.84;;;21.32;nan
20630;BME280;17386;43.846;25.950;2023-07-29T01:32:46;100929.41;;;21.29;nan
20630;BME280;17386;43.846;25.950;2023-07-29T01:37:48;100925.16;;;21.25;nan
20630;BME280;17386;43.846;25.950;2023-07-29T01:40:15;100927.25;;;21.21;nan
20630;BME280;17386;43.846;25.950;2023-07-29T01:42:41;100922.06;;;21.18;nan
20630;BME280;17386;43.846;25.950;2023-07-29T01:45:06;100929.31;;;21.18;nan
20630;BME280;17386;43.846;25.950;2023-07-29T01:47:32;100923.66;;;21.10;nan
20630;BME280;17386;43.846;25.950;2023-07-29T01:49:57;100921.06;;;21.08;nan
20630;BME280;17386;43.846;25.950;2023-07-29T01:52:23;100918.72;;;21.03;nan
20630;BME280;17386;43.846;25.950;2023-07-29T01:54:48;100918.00;;;21.01;nan
20630;BME280;17386;43.846;25.950;2023-07-29T01:57:13;100918.31;;;20.97;nan
20630;BME280;17386;43.846;25.950;2023-07-29T01:59:39;100918.78;;;20.91;nan
20630;BME280;17386;43.846;25.950;2023-07-29T02:02:06;100910.41;;;20.83;nan
20630;BME280;17386;43.846;25.950;2023-07-29T02:04:31;100924.78;;;20.83;nan
20630;BME280;17386;43.846;25.950;2023-07-29T02:06:58;100925.13;;;20.79;nan
20630;BME280;17386;43.846;25.950;2023-07-29T02:09:23;100918.97;;;20.76;nan
20630;BME280;17386;43.846;25.950;2023-07-29T02:11:49;100911.13;;;20.73;nan
20630;BME280;17386;43.846;25.950;2023-07-29T02:14:14;100916.75;;;20.70;nan
20630;BME280;17386;43.846;25.950;2023-07-29T02:16:39;100917.09;;;20.66;nan
20630;BME280;17386;43.846;25.950;2023-07-29T02:19:05;100913.09;;;20.59;nan
20630;BME280;17386;43.846;25.950;2023-07-29T02:21:30;100913.34;;;20.56;nan
20630;BME280;17386;43.846;25.950;2023-07-29T02:23:56;100904.53;;;20.54;nan
20630;BME280;17386;43.846;25.950;2023-07-29T02:26:22;100902.81;;;20.53;nan
20630;BME280;17386;43.846;25.950;2023-07-29T02:28:49;100914.53;;;20.52;nan
20630;BME280;17386;43.846;25.950;2023-07-29T02:31:22;100915.53;;;20.51;nan
20630;BME280;17386;43.846;25.950;2023-07-29T02:33:47;100912.81;;;20.51;nan
20630;BME280;17386;43.846;25.950;2023-07-29T02:36:13;100919.31;;;20.48;nan
20630;BME280;17386;43.846;25.950;2023-07-29T02:38:39;100916.50;;;20.49;nan
20630;BME280;17386;43.846;25.950;2023-07-29T02:41:05;100924.16;;;20.43;nan
20630;BME280;17386;43.846;25.950;2023-07-29T02:43:30;100936.50;;;20.47;nan
20630;BME280;17386;43.846;25.950;2023-07-29T02:45:56;100933.13;;;20.43;nan
20630;BME280;17386;43.846;25.950;2023-07-29T02:48:21;100933.34;;;20.40;nan
20630;BME280;17386;43.846;25.950;2023-07-29T02:50:46;100939.63;;;20.41;nan
20630;BME280;17386;43.846;25.950;2023-07-29T02:53:12;100936.25;;;20.37;nan
20630;BME280;17386;43.846;25.950;2023-07-29T02:55:40;100945.22;;;20.38;nan
20630;BME280;17386;43.846;25.950;2023-07-29T02:58:06;100942.88;;;20.33;nan
20630;BME280;17386;43.846;25.950;2023-07-29T03:00:32;100950.97;;;20.33;nan
20630;BME280;17386;43.846;25.950;2023-07-29T03:02:58;100954.84;;;20.29;nan
20630;BME280;17386;43.846;25.950;2023-07-29T03:05:23;100960.38;;;20.28;nan
20630;BME280;17386;43.846;25.950;2023-07-29T03:07:49;100963.81;;;20.30;nan
20630;BME280;17386;43.846;25.950;2023-07-29T03:10:14;100966.00;;;20.25;nan
20630;BME280;17386;43.846;25.950;2023-07-29T03:12:42;100961.03;;;20.18;nan
20630;BME280;17386;43.846;25.950;2023-07-29T03:15:08;100969.44;;;20.27;nan
20630;BME280;17386;43.846;25.950;2023-07-29T03:17:33;100978.28;;;20.29;nan
20630;BME280;17386;43.846;25.950;2023-07-29T03:20:00;100993.47;;;20.30;nan
20630;BME280;17386;43.846;25.950;2023-07-29T03:22:25;100992.75;;;20.28;nan
20630;BME280;17386;43.846;25.950;2023-07-29T03:24:51;100990.91;;;20.28;nan
20630;BME280;17386;43.846;25.950;2023-07-29T03:27:16;100992.00;;;20.26;nan
20630;BME280;17386;43.846;25.950;2023-07-29T03:29:42;100978.41;;;20.14;nan
20630;BME280;17386;43.846;25.950;2023-07-29T03:32:07;100988.75;;;20.20;nan
20630;BME280;17386;43.846;25.950;2023-07-29T03:34:33;100991.34;;;20.22;nan
20630;BME280;17386;43.846;25.950;2023-07-29T03:37:00;100995.75;;;20.23;nan
20630;BME280;17386;43.846;25.950;2023-07-29T03:39:26;100993.91;;;20.23;nan
20630;BME280;17386;43.846;25.950;2023-07-29T03:41:51;100994.69;;;20.26;nan
20630;BME280;17386;43.846;25.950;2023-07-29T03:44:17;100993.72;;;20.27;nan
20630;BME280;17386;43.846;25.950;2023-07-29T03:46:43;100977.75;;;20.23;nan
20630;BME280;17386;43.846;25.950;2023-07-29T03:49:09;100982.06;;;20.26;nan
20630;BME280;17386;43.846;25.950;2023-07-29T03:51:34;100992.00;;;20.26;nan
20630;BME280;17386;43.846;25.950;2023-07-29T03:54:00;100981.22;;;20.26;nan
20630;BME280;17386;43.846;25.950;2023-07-29T03:56:25;100982.06;;;20.26;nan
20630;BME280;17386;43.846;25.950;2023-07-29T03:58:52;100987.47;;;20.26;nan
20630;BME280;17386;43.846;25.950;2023-07-29T04:01:18;100988.31;;;20.27;nan
20630;BME280;17386;43.846;25.950;2023-07-29T04:03:47;100992.63;;;20.29;nan
20630;BME280;17386;43.846;25.950;2023-07-29T04:06:12;100982.69;;;20.30;nan
20630;BME280;17386;43.846;25.950;2023-07-29T04:08:37;100982.56;;;20.31;nan
20630;BME280;17386;43.846;25.950;2023-07-29T04:11:03;100982.06;;;20.26;nan
20630;BME280;17386;43.846;25.950;2023-07-29T04:13:28;100971.41;;;20.25;nan
20630;BME280;17386;43.846;25.950;2023-07-29T04:15:54;100971.16;;;20.28;nan
20630;BME280;17386;43.846;25.950;2023-07-29T04:18:19;100980.97;;;20.29;nan
20630;BME280;17386;43.846;25.950;2023-07-29T04:20:45;100980.53;;;20.35;nan
20630;BME280;17386;43.846;25.950;2023-07-29T04:23:13;100976.41;;;20.42;nan
20630;BME280;17386;43.846;25.950;2023-07-29T04:25:38;100974.16;;;20.48;nan
20630;BME280;17386;43.846;25.950;2023-07-29T04:28:03;100978.88;;;20.58;nan
20630;BME280;17386;43.846;25.950;2023-07-29T04:30:30;100974.56;;;20.55;nan
20630;BME280;17386;43.846;25.950;2023-07-29T04:32:55;100976.41;;;20.55;nan
20630;BME280;17386;43.846;25.950;2023-07-29T04:35:21;100980.50;;;20.60;nan
20630;BME280;17386;43.846;25.950;2023-07-29T04:37:46;100981.66;;;20.69;nan
20630;BME280;17386;43.846;25.950;2023-07-29T04:40:13;100990.88;;;20.77;nan
20630;BME280;17386;43.846;25.950;2023-07-29T04:42:38;100989.13;;;20.89;nan
20630;BME280;17386;43.846;25.950;2023-07-29T04:45:04;100986.50;;;21.00;nan
20630;BME280;17386;43.846;25.950;2023-07-29T04:47:30;100982.81;;;21.01;nan
20630;BME280;17386;43.846;25.950;2023-07-29T04:49:55;100994.81;;;21.21;nan
20630;BME280;17386;43.846;25.950;2023-07-29T04:52:20;100987.44;;;21.23;nan
20630;BME280;17386;43.846;25.950;2023-07-29T04:54:47;100988.13;;;21.38;nan
20630;BME280;17386;43.846;25.950;2023-07-29T04:57:12;100996.38;;;21.48;nan
20630;BME280;17386;43.846;25.950;2023-07-29T04:59:37;101005.25;;;21.61;nan
20630;BME280;17386;43.846;25.950;2023-07-29T05:02:03;100999.38;;;21.67;nan
20630;BME280;17386;43.846;25.950;2023-07-29T05:04:28;101005.97;;;21.52;nan
20630;BME280;17386;43.846;25.950;2023-07-29T05:06:54;101008.94;;;21.49;nan
20630;BME280;17386;43.846;25.950;2023-07-29T05:09:19;101003.16;;;21.53;nan
20630;BME280;17386;43.846;25.950;2023-07-29T05:11:49;101008.94;;;21.60;nan
20630;BME280;17386;43.846;25.950;2023-07-29T05:14:15;101008.94;;;21.60;nan
20630;BME280;17386;43.846;25.950;2023-07-29T05:16:41;101016.25;;;21.71;nan
20630;BME280;17386;43.846;25.950;2023-07-29T05:19:06;101007.25;;;21.70;nan
20630;BME280;17386;43.846;25.950;2023-07-29T05:21:32;101016.47;;;21.68;nan
20630;BME280;17386;43.846;25.950;2023-07-29T05:23:57;101020.16;;;21.67;nan
20630;BME280;17386;43.846;25.950;2023-07-29T05:26:23;101021.13;;;21.66;nan
20630;BME280;17386;43.846;25.950;2023-07-29T05:28:48;101024.34;;;21.82;nan
20630;BME280;17386;43.846;25.950;2023-07-29T05:31:14;101018.84;;;21.95;nan
20630;BME280;17386;43.846;25.950;2023-07-29T05:33:40;101029.66;;;21.95;nan
20630;BME280;17386;43.846;25.950;2023-07-29T05:36:07;101021.06;;;22.01;nan
20630;BME280;17386;43.846;25.950;2023-07-29T05:38:34;101031.09;;;22.11;nan
20630;BME280;17386;43.846;25.950;2023-07-29T05:41:00;101039.81;;;22.26;nan
20630;BME280;17386;43.846;25.950;2023-07-29T05:43:27;101020.50;;;22.20;nan
20630;BME280;17386;43.846;25.950;2023-07-29T05:45:53;101030.94;;;22.35;nan
20630;BME280;17386;43.846;25.950;2023-07-29T05:48:20;101034.25;;;22.50;nan
20630;BME280;17386;43.846;25.950;2023-07-29T05:50:46;101040.53;;;22.62;nan
20630;BME280;17386;43.846;25.950;2023-07-29T05:53:14;101039.53;;;22.74;nan
20630;BME280;17386;43.846;25.950;2023-07-29T05:55:41;101031.88;;;22.90;nan
20630;BME280;17386;43.846;25.950;2023-07-29T05:58:07;101038.00;;;23.04;nan
20630;BME280;17386;43.846;25.950;2023-07-29T06:00:33;101028.72;;;23.17;nan
20630;BME280;17386;43.846;25.950;2023-07-29T06:02:59;101034.88;;;23.19;nan
20630;BME280;17386;43.846;25.950;2023-07-29T06:05:26;101032.25;;;23.29;nan
20630;BME280;17386;43.846;25.950;2023-07-29T06:07:53;101031.94;;;23.43;nan
20630;BME280;17386;43.846;25.950;2023-07-29T06:10:20;101031.50;;;23.59;nan
20630;BME280;17386;43.846;25.950;2023-07-29T06:12:46;101028.75;;;23.70;nan
20630;BME280;17386;43.846;25.950;2023-07-29T06:15:13;101022.53;;;23.80;nan
20630;BME280;17386;43.846;25.950;2023-07-29T06:17:39;101040.31;;;23.93;nan
20630;BME280;17386;43.846;25.950;2023-07-29T06:20:06;101035.97;;;24.02;nan
20630;BME280;17386;43.846;25.950;2023-07-29T06:22:32;101028.00;;;24.10;nan
20630;BME280;17386;43.846;25.950;2023-07-29T06:24:58;101027.75;;;23.92;nan
20630;BME280;17386;43.846;25.950;2023-07-29T06:27:25;101034.34;;;23.99;nan
20630;BME280;17386;43.846;25.950;2023-07-29T06:29:51;101033.78;;;23.96;nan
20630;BME280;17386;43.846;25.950;2023-07-29T06:32:18;101035.00;;;24.13;nan
20630;BME280;17386;43.846;25.950;2023-07-29T06:34:45;101026.78;;;24.24;nan
20630;BME280;17386;43.846;25.950;2023-07-29T06:37:11;101027.72;;;24.13;nan
20630;BME280;17386;43.846;25.950;2023-07-29T06:39:38;101037.31;;;24.17;nan
20630;BME280;17386;43.846;25.950;2023-07-29T06:42:04;101036.84;;;24.33;nan
20630;BME280;17386;43.846;25.950;2023-07-29T06:44:32;101047.88;;;24.41;nan
20630;BME280;17386;43.846;25.950;2023-07-29T06:46:58;101039.94;;;24.28;nan
20630;BME280;17386;43.846;25.950;2023-07-29T06:49:27;101040.78;;;24.29;nan
20630;BME280;17386;43.846;25.950;2023-07-29T06:51:53;101040.47;;;24.43;nan
20630;BME280;17386;43.846;25.950;2023-07-29T06:54:24;101031.50;;;24.62;nan
20630;BME280;17386;43.846;25.950;2023-07-29T06:56:51;101032.44;;;24.82;nan
20630;BME280;17386;43.846;25.950;2023-07-29T06:59:17;101030.75;;;25.00;nan
20630;BME280;17386;43.846;25.950;2023-07-29T07:01:44;101032.94;;;25.16;nan
20630;BME280;17386;43.846;25.950;2023-07-29T07:04:11;101036.25;;;25.20;nan
20630;BME280;17386;43.846;25.950;2023-07-29T07:06:37;101024.81;;;25.26;nan
20630;BME280;17386;43.846;25.950;2023-07-29T07:09:03;101028.66;;;25.43;nan
20630;BME280;17386;43.846;25.950;2023-07-29T07:11:29;101034.50;;;25.57;nan
20630;BME280;17386;43.846;25.950;2023-07-29T07:13:56;101032.34;;;25.71;nan
20630;BME280;17386;43.846;25.950;2023-07-29T07:16:23;101036.34;;;25.86;nan
20630;BME280;17386;43.846;25.950;2023-07-29T07:18:49;101033.91;;;25.92;nan
20630;BME280;17386;43.846;25.950;2023-07-29T07:21:16;101033.38;;;25.79;nan
20630;BME280;17386;43.846;25.950;2023-07-29T07:23:42;101033.22;;;25.90;nan
20630;BME280;17386;43.846;25.950;2023-07-29T07:26:09;101020.03;;;25.96;nan
20630;BME280;17386;43.846;25.950;2023-07-29T07:28:36;101027.13;;;26.16;nan
20630;BME280;17386;43.846;25.950;2023-07-29T07:31:03;101022.06;;;26.21;nan
20630;BME280;17386;43.846;25.950;2023-07-29T07:33:29;101027.22;;;26.24;nan
20630;BME280;17386;43.846;25.950;2023-07-29T07:35:56;101016.09;;;26.17;nan
20630;BME280;17386;43.846;25.950;2023-07-29T07:38:23;101030.66;;;26.26;nan
20630;BME280;17386;43.846;25.950;2023-07-29T07:40:55;101020.41;;;26.48;nan
20630;BME280;17386;43.846;25.950;2023-07-29T07:43:22;101020.81;;;26.53;nan
20630;BME280;17386;43.846;25.950;2023-07-29T07:45:49;101002.25;;;26.66;nan
20630;BME280;17386;43.846;25.950;2023-07-29T07:48:14;101009.53;;;26.93;nan
20630;BME280;17386;43.846;25.950;2023-07-29T07:50:42;101002.88;;;27.05;nan
20630;BME280;17386;43.846;25.950;2023-07-29T07:53:09;101016.59;;;27.13;nan
20630;BME280;17386;43.846;25.950;2023-07-29T07:55:35;101013.25;;;27.19;nan
20630;BME280;17386;43.846;25.950;2023-07-29T07:58:01;101012.75;;;27.24;nan
20630;BME280;17386;43.846;25.950;2023-07-29T08:00:26;101001.53;;;27.45;nan
20630;BME280;17386;43.846;25.950;2023-07-29T08:02:51;101005.94;;;27.64;nan
20630;BME280;17386;43.846;25.950;2023-07-29T08:05:17;101012.25;;;27.82;nan
20630;BME280;17386;43.846;25.950;2023-07-29T08:07:43;101006.91;;;27.98;nan
20630;BME280;17386;43.846;25.950;2023-07-29T08:10:08;101001.53;;;28.15;nan
20630;BME280;17386;43.846;25.950;2023-07-29T08:12:34;100997.03;;;28.31;nan
20630;BME280;17386;43.846;25.950;2023-07-29T08:14:59;100994.88;;;28.43;nan
20630;BME280;17386;43.846;25.950;2023-07-29T08:17:26;100995.41;;;28.55;nan
20630;BME280;17386;43.846;25.950;2023-07-29T08:19:51;100985.91;;;28.67;nan
20630;BME280;17386;43.846;25.950;2023-07-29T08:22:17;100991.75;;;28.80;nan
20630;BME280;17386;43.846;25.950;2023-07-29T08:24:42;100996.75;;;28.93;nan
20630;BME280;17386;43.846;25.950;2023-07-29T08:27:08;100989.72;;;28.91;nan
20630;BME280;17386;43.846;25.950;2023-07-29T08:29:33;100991.38;;;28.75;nan
20630;BME280;17386;43.846;25.950;2023-07-29T08:32:00;100998.66;;;28.93;nan
20630;BME280;17386;43.846;25.950;2023-07-29T08:34:25;100984.25;;;28.82;nan
20630;BME280;17386;43.846;25.950;2023-07-29T08:36:51;100987.72;;;29.01;nan
20630;BME280;17386;43.846;25.950;2023-07-29T08:39:16;100984.84;;;29.19;nan
20630;BME280;17386;43.846;25.950;2023-07-29T08:42:08;100981.78;;;29.38;nan
20630;BME280;17386;43.846;25.950;2023-07-29T08:44:40;100982.81;;;29.53;nan
20630;BME280;17386;43.846;25.950;2023-07-29T08:47:06;100979.56;;;29.66;nan
20630;BME280;17386;43.846;25.950;2023-07-29T08:49:32;100971.34;;;29.58;nan
20630;BME280;17386;43.846;25.950;2023-07-29T08:51:58;100976.97;;;29.73;nan
20630;BME280;17386;43.846;25.950;2023-07-29T08:54:24;100970.13;;;29.77;nan
20630;BME280;17386;43.846;25.950;2023-07-29T08:56:50;100964.09;;;29.89;nan
20630;BME280;17386;43.846;25.950;2023-07-29T08:59:16;100959.09;;;30.01;nan
20630;BME280;17386;43.846;25.950;2023-07-29T09:01:44;100960.97;;;30.17;nan
20630;BME280;17386;43.846;25.950;2023-07-29T09:04:10;100958.88;;;30.27;nan
20630;BME280;17386;43.846;25.950;2023-07-29T09:06:35;100960.16;;;30.39;nan
20630;BME280;17386;43.846;25.950;2023-07-29T09:09:05;100938.25;;;30.39;nan
20630;BME280;17386;43.846;25.950;2023-07-29T09:11:32;100964.81;;;30.39;nan
20630;BME280;17386;43.846;25.950;2023-07-29T09:13:58;100962.09;;;30.31;nan
20630;BME280;17386;43.846;25.950;2023-07-29T09:16:26;100955.72;;;30.38;nan
20630;BME280;17386;43.846;25.950;2023-07-29T09:18:53;100957.91;;;30.51;nan
20630;BME280;17386;43.846;25.950;2023-07-29T09:21:24;100956.59;;;30.39;nan
20630;BME280;17386;43.846;25.950;2023-07-29T09:23:55;100954.50;;;30.49;nan
20630;BME280;17386;43.846;25.950;2023-07-29T09:26:28;100939.59;;;30.43;nan
20630;BME280;17386;43.846;25.950;2023-07-29T09:28:59;100948.91;;;30.65;nan
20630;BME280;17386;43.846;25.950;2023-07-29T09:31:27;100946.31;;;30.72;nan
20630;BME280;17386;43.846;25.950;2023-07-29T09:34:02;100949.56;;;30.75;nan
20630;BME280;17386;43.846;25.950;2023-07-29T09:36:33;100944.03;;;30.84;nan
20630;BME280;17386;43.846;25.950;2023-07-29T09:38:59;100934.03;;;30.91;nan
20630;BME280;17386;43.846;25.950;2023-07-29T09:41:26;100939.13;;;30.94;nan
20630;BME280;17386;43.846;25.950;2023-07-29T09:44:01;100926.28;;;30.94;nan
20630;BME280;17386;43.846;25.950;2023-07-29T09:46:38;100942.25;;;30.91;nan
20630;BME280;17386;43.846;25.950;2023-07-29T09:49:04;100931.22;;;30.99;nan
20630;BME280;17386;43.846;25.950;2023-07-29T09:51:31;100922.91;;;31.07;nan
20630;BME280;17386;43.846;25.950;2023-07-29T09:54:02;100929.50;;;31.21;nan
20630;BME280;17386;43.846;25.950;2023-07-29T09:56:30;100928.97;;;31.25;nan
20630;BME280;17386;43.846;25.950;2023-07-29T09:58:57;100931.84;;;31.32;nan
20630;BME280;17386;43.846;25.950;2023-07-29T10:01:24;100927.22;;;31.47;nan
20630;BME280;17386;43.846;25.950;2023-07-29T10:03:50;100928.41;;;31.68;nan
20630;BME280;17386;43.846;25.950;2023-07-29T10:06:18;100923.03;;;31.89;nan
20630;BME280;17386;43.846;25.950;2023-07-29T10:08:47;100922.16;;;32.03;nan
20630;BME280;17386;43.846;25.950;2023-07-29T10:11:15;100915.31;;;32.29;nan
20630;BME280;17386;43.846;25.950;2023-07-29T10:13:42;100922.94;;;32.63;nan
20630;BME280;17386;43.846;25.950;2023-07-29T10:16:10;100913.56;;;33.15;nan
20630;BME280;17386;43.846;25.950;2023-07-29T10:18:39;100910.72;;;33.86;nan
20630;BME280;17386;43.846;25.950;2023-07-29T10:21:06;100917.16;;;34.41;nan
20630;BME280;17386;43.846;25.950;2023-07-29T10:23:40;100898.03;;;35.20;nan
20630;BME280;17386;43.846;25.950;2023-07-29T10:26:10;100912.44;;;35.95;nan
20630;BME280;17386;43.846;25.950;2023-07-29T10:28:41;100904.50;;;36.63;nan
20630;BME280;17386;43.846;25.950;2023-07-29T10:31:12;100903.41;;;37.53;nan
20630;BME280;17386;43.846;25.950;2023-07-29T10:33:39;100902.56;;;38.32;nan
20630;BME280;17386;43.846;25.950;2023-07-29T10:36:08;100897.47;;;38.11;nan
20630;BME280;17386;43.846;25.950;2023-07-29T10:38:35;100897.59;;;38.52;nan
20630;BME280;17386;43.846;25.950;2023-07-29T10:41:02;100896.38;;;39.20;nan
20630;BME280;17386;43.846;25.950;2023-07-29T10:43:35;100896.38;;;39.20;nan
20630;BME280;17386;43.846;25.950;2023-07-29T10:46:22;100884.75;;;40.05;nan
20630;BME280;17386;43.846;25.950;2023-07-29T10:48:56;100882.59;;;39.49;nan
20630;BME280;17386;43.846;25.950;2023-07-29T10:54:13;100881.03;;;39.64;nan
20630;BME280;17386;43.846;25.950;2023-07-29T10:56:47;100878.34;;;40.33;nan
20630;BME280;17386;43.846;25.950;2023-07-29T11:01:59;59141.97;;;-143.98;100.00
20630;BME280;17386;43.846;25.950;2023-07-29T11:04:30;59141.97;;;-143.98;100.00
20630;BME280;17386;43.846;25.950;2023-07-29T11:12:46;59141.97;;;-143.98;100.00
20630;BME280;17386;43.846;25.950;2023-07-29T11:15:26;59141.97;;;-143.98;100.00
20630;BME280;17386;43.846;25.950;2023-07-29T11:18:01;59141.97;;;-143.98;100.00
20630;BME280;17386;43.846;25.950;2023-07-29T11:20:29;59141.97;;;-143.98;100.00
20630;BME280;17386;43.846;25.950;2023-07-29T11:23:00;59141.97;;;-143.98;100.00
20630;BME280;17386;43.846;25.950;2023-07-29T11:25:29;59141.97;;;-143.98;100.00
20630;BME280;17386;43.846;25.950;2023-07-29T11:27:57;59141.97;;;-143.98;100.00
20630;BME280;17386;43.846;25.950;2023-07-29T11:30:24;59141.97;;;-143.98;100.00
20630;BME280;17386;43.846;25.950;2023-07-29T11:32:57;100841.19;;;40.11;nan
20630;BME280;17386;43.846;25.950;2023-07-29T11:35:25;100840.66;;;39.50;nan
20630;BME280;17386;43.846;25.950;2023-07-29T11:37:55;100819.94;;;38.76;nan
20630;BME280;17386;43.846;25.950;2023-07-29T11:40:26;100840.69;;;38.13;nan
20630;BME280;17386;43.846;25.950;2023-07-29T11:42:52;100835.84;;;37.29;nan
20630;BME280;17386;43.846;25.950;2023-07-29T11:45:20;100820.75;;;36.75;nan
20630;BME280;17386;43.846;25.950;2023-07-29T11:47:47;100823.75;;;36.03;nan
20630;BME280;17386;43.846;25.950;2023-07-29T11:50:15;100816.53;;;35.82;nan
20630;BME280;17386;43.846;25.950;2023-07-29T11:52:45;100819.66;;;35.34;nan
20630;BME280;17386;43.846;25.950;2023-07-29T11:55:13;100815.81;;;34.76;nan
20630;BME280;17386;43.846;25.950;2023-07-29T11:57:42;100810.47;;;34.41;nan
20630;BME280;17386;43.846;25.950;2023-07-29T12:00:09;100807.22;;;34.31;nan
20630;BME280;17386;43.846;25.950;2023-07-29T12:02:38;100818.91;;;34.26;nan
20630;BME280;17386;43.846;25.950;2023-07-29T12:05:06;100810.34;;;34.01;nan
20630;BME280;17386;43.846;25.950;2023-07-29T12:07:32;100807.25;;;33.83;nan
20630;BME280;17386;43.846;25.950;2023-07-29T12:10:03;100799.00;;;33.90;nan
20630;BME280;17386;43.846;25.950;2023-07-29T12:12:30;100803.66;;;33.89;nan
20630;BME280;17386;43.846;25.950;2023-07-29T12:14:57;100801.13;;;33.88;nan
20630;BME280;17386;43.846;25.950;2023-07-29T12:17:24;100801.34;;;33.86;nan
20630;BME280;17386;43.846;25.950;2023-07-29T12:19:53;100793.97;;;33.93;nan
20630;BME280;17386;43.846;25.950;2023-07-29T12:22:20;100796.13;;;33.98;nan
20630;BME280;17386;43.846;25.950;2023-07-29T12:24:47;100784.81;;;33.86;nan
20630;BME280;17386;43.846;25.950;2023-07-29T12:27:15;100799.00;;;33.90;nan
20630;BME280;17386;43.846;25.950;2023-07-29T12:29:45;100792.84;;;33.81;nan
20630;BME280;17386;43.846;25.950;2023-07-29T12:32:14;100795.53;;;33.68;nan
20630;BME280;17386;43.846;25.950;2023-07-29T12:34:41;100793.59;;;33.62;nan
20630;BME280;17386;43.846;25.950;2023-07-29T12:37:07;100793.84;;;33.67;nan
20630;BME280;17386;43.846;25.950;2023-07-29T12:39:39;100790.88;;;33.68;nan
20630;BME280;17386;43.846;25.950;2023-07-29T12:42:05;100772.19;;;33.57;nan
20630;BME280;17386;43.846;25.950;2023-07-29T12:44:33;100783.38;;;33.56;nan
20630;BME280;17386;43.846;25.950;2023-07-29T12:47:01;100781.94;;;33.60;nan
20630;BME280;17386;43.846;25.950;2023-07-29T12:49:28;100783.03;;;33.65;nan
20630;BME280;17386;43.846;25.950;2023-07-29T12:51:55;100787.25;;;33.68;nan
20630;BME280;17386;43.846;25.950;2023-07-29T12:54:21;100787.47;;;33.66;nan
20630;BME280;17386;43.846;25.950;2023-07-29T12:56:47;100784.94;;;33.65;nan
20630;BME280;17386;43.846;25.950;2023-07-29T12:59:14;100783.25;;;33.64;nan
20630;BME280;17386;43.846;25.950;2023-07-29T13:01:40;100792.53;;;33.56;nan
20630;BME280;17386;43.846;25.950;2023-07-29T13:04:07;100777.75;;;33.36;nan
20630;BME280;17386;43.846;25.950;2023-07-29T13:06:34;100782.81;;;33.32;nan
20630;BME280;17386;43.846;25.950;2023-07-29T13:09:00;100780.00;;;33.26;nan
20630;BME280;17386;43.846;25.950;2023-07-29T13:11:27;100773.31;;;33.07;nan
20630;BME280;17386;43.846;25.950;2023-07-29T13:13:54;100781.03;;;33.18;nan
20630;BME280;17386;43.846;25.950;2023-07-29T13:16:19;100781.75;;;33.33;nan
20630;BME280;17386;43.846;25.950;2023-07-29T13:18:44;100770.84;;;33.46;nan